Time;durP1;ratioP1;P1;durP2;ratioP2;P2;SDS_P1;SDS_P2;PMS_P1;PMS_P2;Temp;Humidity;BMP_temperature;BMP_pressure;BME280_temperature;BME280_humidity;BME280_pressure;Samples;Min_cycle;Max_cycle;Signal;HPM_P1;HPM_P2
2022/09/23 00:01:48;;;;;;;3.67;1.43;;;;;;;16.80;62.15;100518.44;5072395;28;20241;-67
2022/09/23 00:04:14;;;;;;;3.20;1.20;;;;;;;16.81;62.33;100525.78;5072100;28;20167;-67
2022/09/23 00:06:40;;;;;;;1.70;1.10;;;;;;;16.81;62.11;100513.59;5071041;28;20178;-67
2022/09/23 00:09:05;;;;;;;3.13;1.77;;;;;;;16.81;62.08;100522.13;5072441;28;20206;-67
2022/09/23 00:11:31;;;;;;;2.33;1.30;;;;;;;16.80;62.49;100521.28;5071910;28;20425;-67
2022/09/23 00:13:58;;;;;;;4.43;1.37;;;;;;;16.80;61.98;100520.47;5072264;28;20159;-67
2022/09/23 00:16:27;;;;;;;3.40;1.30;;;;;;;16.81;62.59;100522.13;5070525;28;20164;-67
2022/09/23 00:18:52;;;;;;;2.90;1.27;;;;;;;16.81;62.41;100519.28;5103338;28;20406;-67
2022/09/23 00:21:18;;;;;;;4.03;1.40;;;;;;;16.80;62.41;100527.00;5070117;28;20421;-67
2022/09/23 00:23:44;;;;;;;2.80;1.33;;;;;;;16.80;62.27;100527.00;5070184;28;20167;-67
2022/09/23 00:26:14;;;;;;;4.23;0.97;;;;;;;16.81;62.32;100525.00;5071186;28;20425;-67
2022/09/23 00:28:40;;;;;;;2.10;1.20;;;;;;;16.80;62.37;100527.00;5069764;28;20340;-67
2022/09/23 00:31:09;;;;;;;2.87;1.10;;;;;;;16.80;62.08;100523.34;5069067;28;20532;-67
2022/09/23 00:33:35;;;;;;;2.70;0.90;;;;;;;16.79;62.44;100519.63;5085620;28;20554;-67
2022/09/23 00:36:02;;;;;;;2.30;1.30;;;;;;;16.79;62.24;100519.63;5070373;28;20425;-67
2022/09/23 00:38:27;;;;;;;2.23;1.20;;;;;;;16.80;62.15;100524.16;5046885;28;20182;-67
2022/09/23 00:40:53;;;;;;;3.20;1.50;;;;;;;16.80;62.16;100526.19;5103260;28;20458;-67
2022/09/23 00:43:19;;;;;;;4.07;1.93;;;;;;;16.80;62.61;100521.28;5070317;28;20178;-67
2022/09/23 00:45:46;;;;;;;3.00;1.30;;;;;;;16.80;61.88;100512.75;5069618;28;20183;-67
2022/09/23 00:48:15;;;;;;;2.63;1.20;;;;;;;16.78;62.06;100518.00;5103502;28;20197;-67
2022/09/23 00:50:42;;;;;;;2.20;1.40;;;;;;;16.80;62.30;100515.59;5086124;28;20441;-67
2022/09/23 00:53:10;;;;;;;2.80;1.33;;;;;;;16.79;62.38;100522.50;5069942;28;20413;-67
2022/09/23 00:55:44;;;;;;;2.27;0.90;;;;;;;16.80;62.20;100514.78;5103440;28;20421;-67
2022/09/23 00:58:11;;;;;;;2.93;1.10;;;;;;;16.79;62.14;100518.78;5069510;28;20504;-67
2022/09/23 01:00:37;;;;;;;3.00;1.33;;;;;;;16.79;62.37;100518.78;5053517;28;20386;-67
2022/09/23 01:03:04;;;;;;;2.20;1.50;;;;;;;16.78;62.21;100512.28;5051819;28;20521;-67
2022/09/23 01:05:30;;;;;;;2.63;1.37;;;;;;;16.78;62.38;100512.28;5051313;28;20184;-66
2022/09/23 01:07:56;;;;;;;3.00;1.43;;;;;;;16.78;62.25;100512.28;5059608;28;20421;-67
2022/09/23 01:10:22;;;;;;;2.23;1.30;;;;;;;16.78;62.03;100512.28;5071040;28;20472;-67
2022/09/23 01:13:01;;;;;;;2.10;1.07;;;;;;;16.78;62.12;100509.44;5086462;28;20198;-67
2022/09/23 01:15:34;;;;;;;2.60;1.23;;;;;;;16.77;62.33;100507.78;5101220;28;20250;-67
2022/09/23 01:18:22;;;;;;;2.87;1.50;;;;;;;16.77;62.32;100506.94;5101976;28;20406;-67
2022/09/23 01:20:58;;;;;;;3.50;1.70;;;;;;;16.77;62.40;100504.09;5103481;28;20397;-67
2022/09/23 01:23:41;;;;;;;1.97;1.17;;;;;;;16.77;62.28;100502.09;5085153;28;20742;-67
2022/09/23 01:26:27;;;;;;;2.13;1.13;;;;;;;16.76;62.02;100503.25;5071096;28;20394;-66
2022/09/23 01:29:01;;;;;;;2.10;1.20;;;;;;;16.77;62.26;100499.22;5072491;28;20461;-67
2022/09/23 01:31:32;;;;;;;2.33;1.00;;;;;;;16.77;62.05;100507.78;5075547;28;20401;-67
2022/09/23 01:34:28;;;;;;;2.07;1.23;;;;;;;16.76;62.24;100500.41;5075069;28;20467;-67
2022/09/23 01:37:08;;;;;;;2.43;1.23;;;;;;;16.76;62.06;100503.25;5086975;28;20452;-67
2022/09/23 01:39:39;;;;;;;1.90;0.90;;;;;;;16.77;62.29;100495.53;5103903;28;21206;-67
2022/09/23 01:42:11;;;;;;;2.30;1.33;;;;;;;16.77;62.29;100507.78;5090499;28;20433;-67
2022/09/23 01:44:42;;;;;;;3.17;1.40;;;;;;;16.76;62.28;100503.25;5105373;28;20424;-67
2022/09/23 01:47:13;;;;;;;3.97;1.40;;;;;;;16.76;62.17;100505.28;5074621;28;20551;-67
2022/09/23 01:53:03;;;;;;;1.83;1.00;;;;;;;16.76;62.11;100506.09;5072959;28;20839;-67
2022/09/23 01:55:34;;;;;;;2.23;1.10;;;;;;;16.76;62.18;100499.59;5056244;28;20417;-67
2022/09/23 01:58:09;;;;;;;2.50;1.20;;;;;;;16.76;61.63;100494.69;5055451;28;20437;-67
2022/09/23 02:00:39;;;;;;;3.10;1.20;;;;;;;16.76;62.26;100500.41;5072301;28;21130;-67
2022/09/23 02:03:25;;;;;;;2.37;1.30;;;;;;;16.75;62.13;100495.91;5072639;28;20474;-67
2022/09/23 02:06:11;;;;;;;2.00;1.10;;;;;;;16.76;62.07;100506.09;5072329;28;20405;-66
2022/09/23 02:08:40;;;;;;;2.30;1.30;;;;;;;16.75;62.18;100497.94;5072217;28;21014;-67
2022/09/23 02:11:10;;;;;;;2.30;1.20;;;;;;;16.75;62.11;100495.09;5089858;28;20405;-67
2022/09/23 02:14:14;;;;;;;1.80;1.07;;;;;;;16.74;62.48;100497.09;5089518;28;20470;-67
2022/09/23 02:16:47;;;;;;;3.93;1.20;;;;;;;16.73;62.10;100492.59;5074720;28;20424;-67
2022/09/23 02:19:29;;;;;;;2.30;1.20;;;;;;;16.75;62.17;100489.38;5090134;28;20893;-67
2022/09/23 02:22:02;;;;;;;3.20;1.70;;;;;;;16.75;62.25;100483.69;5106947;28;20431;-67
2022/09/23 02:24:30;;;;;;;2.70;1.50;;;;;;;16.73;62.22;100486.06;5073018;28;20405;-67
2022/09/23 02:27:12;;;;;;;2.33;1.30;;;;;;;16.73;62.09;100492.59;5071649;28;20429;-67
2022/09/23 02:29:56;;;;;;;4.70;1.40;;;;;;;16.74;61.88;100487.69;5057408;28;20489;-66
2022/09/23 02:32:28;;;;;;;1.83;1.07;;;;;;;16.74;62.12;100482.00;5072276;28;20417;-67
2022/09/23 02:35:02;;;;;;;3.10;1.20;;;;;;;16.73;62.18;100481.19;5073707;28;20669;-67
2022/09/23 02:38:02;;;;;;;3.00;1.40;;;;;;;16.72;62.15;100473.84;5072232;28;21241;-67
2022/09/23 02:40:40;;;;;;;1.97;1.00;;;;;;;16.74;62.29;100485.69;5073550;28;20786;-67
2022/09/23 02:43:09;;;;;;;2.43;1.40;;;;;;;16.73;62.27;100468.94;5072913;28;20915;-67
2022/09/23 02:45:36;;;;;;;2.13;1.20;;;;;;;16.73;61.91;100471.78;5074520;28;20416;-67
2022/09/23 02:48:13;;;;;;;2.10;1.20;;;;;;;16.72;61.99;100473.84;5074874;28;20421;-67
2022/09/23 02:50:39;;;;;;;2.63;1.17;;;;;;;16.73;62.22;100471.78;5074869;28;20473;-67
2022/09/23 02:53:04;;;;;;;2.90;1.50;;;;;;;16.72;62.34;100468.13;5074537;28;20448;-66
2022/09/23 02:55:31;;;;;;;2.50;1.17;;;;;;;16.72;62.02;100467.28;5074425;28;20182;-67
2022/09/23 02:58:00;;;;;;;4.10;1.30;;;;;;;16.72;62.09;100459.59;5073065;28;20445;-67
2022/09/23 03:00:28;;;;;;;2.40;1.07;;;;;;;16.72;61.96;100455.91;5072599;28;20917;-66
2022/09/23 03:03:21;;;;;;;1.97;1.30;;;;;;;16.72;62.13;100456.72;5056555;28;20413;-67
2022/09/23 03:05:53;;;;;;;2.23;1.23;;;;;;;16.71;62.00;100454.25;5072950;28;20428;-67
2022/09/23 03:08:28;;;;;;;1.90;1.17;;;;;;;16.72;62.17;100462.44;5072632;28;20418;-67
2022/09/23 03:11:07;;;;;;;2.80;1.47;;;;;;;16.71;62.01;100460.75;5073844;28;20393;-66
2022/09/23 03:14:16;;;;;;;2.43;1.20;;;;;;;16.71;62.49;100472.16;5105821;28;20425;-67
2022/09/23 03:16:42;;;;;;;2.70;1.30;;;;;;;16.71;62.14;100466.44;5105643;28;20458;-67
2022/09/23 03:19:41;;;;;;;2.10;0.90;;;;;;;16.70;62.15;100467.66;5073824;28;20385;-66
2022/09/23 03:22:19;;;;;;;1.70;1.10;;;;;;;16.70;62.07;100459.09;5106532;28;20418;-67
2022/09/23 03:24:45;;;;;;;2.80;1.17;;;;;;;16.71;62.03;100465.66;5073554;28;20449;-67
2022/09/23 03:27:16;;;;;;;2.10;1.13;;;;;;;16.70;62.02;100467.66;5088687;28;20455;-67
2022/09/23 03:29:44;;;;;;;2.47;1.33;;;;;;;16.70;62.13;100459.09;5071163;28;20546;-67
2022/09/23 03:32:10;;;;;;;2.30;1.30;;;;;;;16.70;62.05;100461.16;5104428;28;20408;-67
2022/09/23 03:34:36;;;;;;;3.40;1.33;;;;;;;16.70;62.05;100452.59;5070893;28;20422;-66
2022/09/23 03:37:33;;;;;;;1.70;1.07;;;;;;;16.70;62.19;100464.00;5087633;28;20954;-67
2022/09/23 03:40:02;;;;;;;2.40;1.33;;;;;;;16.69;61.94;100456.59;5070900;28;20198;-65
2022/09/23 03:42:29;;;;;;;3.97;1.40;;;;;;;16.70;62.30;100458.28;5106183;28;21214;-65
2022/09/23 03:44:57;;;;;;;2.70;1.60;;;;;;;16.69;61.94;100457.44;5088651;28;20417;-65
2022/09/23 03:47:26;;;;;;;2.00;1.30;;;;;;;16.69;61.90;100448.06;5088251;28;20417;-65
2022/09/23 03:49:52;;;;;;;1.97;1.30;;;;;;;16.70;62.09;100446.88;5071672;28;20472;-65
2022/09/23 03:52:19;;;;;;;2.73;1.23;;;;;;;16.69;62.17;100454.59;5072644;28;20418;-65
2022/09/23 03:54:45;;;;;;;2.37;1.07;;;;;;;16.69;61.90;100451.75;5104843;28;20171;-65
2022/09/23 03:57:10;;;;;;;3.73;1.30;;;;;;;16.68;61.93;100446.41;5072797;28;20493;-65
2022/09/23 03:59:36;;;;;;;2.03;1.30;;;;;;;16.68;62.06;100444.41;5073268;28;20163;-65
2022/09/23 04:02:02;;;;;;;1.80;1.20;;;;;;;16.69;61.86;100451.75;5071899;28;20218;-65
2022/09/23 04:04:28;;;;;;;2.23;1.33;;;;;;;16.69;62.24;100450.91;5071542;28;20267;-65
2022/09/23 04:06:54;;;;;;;2.57;1.30;;;;;;;16.68;62.22;100452.09;5073180;28;20484;-65
2022/09/23 04:09:20;;;;;;;2.53;1.40;;;;;;;16.68;62.03;100455.81;5071705;28;20183;-65
2022/09/23 04:11:48;;;;;;;3.00;1.50;;;;;;;16.67;62.02;100457.00;5071633;28;20402;-65
2022/09/23 04:14:13;;;;;;;2.33;1.43;;;;;;;16.68;62.20;100455.81;5072353;28;20418;-65
2022/09/23 04:16:39;;;;;;;2.30;1.30;;;;;;;16.68;61.62;100464.34;5072113;28;20405;-65
2022/09/23 04:19:05;;;;;;;3.47;1.50;;;;;;;16.68;61.99;100452.94;5071938;28;20228;-65
2022/09/23 04:21:30;;;;;;;3.03;1.23;;;;;;;16.69;61.75;100462.31;5071866;28;20178;-65
2022/09/23 04:23:56;;;;;;;1.97;1.17;;;;;;;16.68;62.04;100463.50;5071945;28;20182;-65
2022/09/23 04:26:21;;;;;;;2.00;1.17;;;;;;;16.67;61.86;100465.56;5072456;28;20178;-65
2022/09/23 04:28:46;;;;;;;3.70;1.50;;;;;;;16.67;61.96;100464.72;5071906;28;20210;-65
2022/09/23 04:31:12;;;;;;;2.60;1.50;;;;;;;16.67;62.09;100470.41;5071300;28;20540;-65
2022/09/23 04:33:37;;;;;;;2.13;1.40;;;;;;;16.67;61.73;100470.41;5072520;28;20185;-65
2022/09/23 04:36:03;;;;;;;2.07;1.30;;;;;;;16.66;61.97;100463.88;5072688;28;20179;-65
2022/09/23 04:38:28;;;;;;;3.00;1.27;;;;;;;16.67;61.89;100462.69;5072902;28;20198;-65
2022/09/23 04:40:54;;;;;;;4.83;1.57;;;;;;;16.66;61.98;100463.88;5072202;28;20194;-65
2022/09/23 04:43:22;;;;;;;2.20;1.40;;;;;;;16.66;62.00;100458.16;5072142;28;20178;-65
2022/09/23 04:46:02;;;;;;;2.40;1.33;;;;;;;16.65;62.32;100461.41;5072187;28;20175;-65
2022/09/23 04:48:28;;;;;;;2.63;1.30;;;;;;;16.65;62.10;100462.22;5102491;28;20408;-65
2022/09/23 04:50:53;;;;;;;2.30;1.40;;;;;;;16.66;61.84;100469.56;5070962;28;20782;-65
2022/09/23 04:53:20;;;;;;;6.03;1.17;;;;;;;16.65;62.07;100462.22;5105379;28;20182;-65
2022/09/23 04:55:45;;;;;;;2.87;1.60;;;;;;;16.65;61.92;100464.25;5071612;28;20167;-65
2022/09/23 04:58:10;;;;;;;2.50;1.37;;;;;;;16.65;62.06;100465.06;5069807;28;20429;-66
2022/09/23 05:00:36;;;;;;;2.17;1.20;;;;;;;16.64;62.02;100465.44;5071620;28;20733;-66
2022/09/23 05:03:02;;;;;;;2.30;1.40;;;;;;;16.64;62.18;100466.28;5070475;28;20455;-66
2022/09/23 05:05:28;;;;;;;2.93;1.30;;;;;;;16.64;61.89;100463.41;5071460;28;20197;-66
2022/09/23 05:07:54;;;;;;;2.03;1.17;;;;;;;16.63;62.09;100464.63;5070524;28;20301;-66
2022/09/23 05:10:20;;;;;;;2.90;1.47;;;;;;;16.63;61.86;100464.63;5070616;28;20563;-66
2022/09/23 05:12:45;;;;;;;2.93;1.17;;;;;;;16.64;61.80;100471.13;5070466;28;20167;-66
2022/09/23 05:15:11;;;;;;;2.23;1.30;;;;;;;16.63;62.14;100469.47;5071764;28;20178;-66
2022/09/23 05:17:37;;;;;;;2.40;1.10;;;;;;;16.63;61.96;100476.00;5103782;28;20641;-66
2022/09/23 05:20:03;;;;;;;2.43;1.33;;;;;;;16.64;61.75;100479.69;5071161;28;20409;-66
2022/09/23 05:22:28;;;;;;;2.57;1.40;;;;;;;16.63;62.09;100467.47;5071858;28;21093;-66
2022/09/23 05:24:54;;;;;;;2.30;1.30;;;;;;;16.63;62.14;100469.47;5087454;28;20580;-66
2022/09/23 05:27:20;;;;;;;2.17;1.10;;;;;;;16.62;61.87;100471.50;5071776;28;20266;-66
2022/09/23 05:29:46;;;;;;;2.13;1.23;;;;;;;16.62;62.05;100468.66;5071715;28;20193;-66
2022/09/23 05:32:12;;;;;;;2.23;1.17;;;;;;;16.63;61.79;100470.31;5071879;28;20171;-66
2022/09/23 05:34:37;;;;;;;2.17;1.20;;;;;;;16.63;61.95;100463.78;5071729;28;20448;-66
2022/09/23 05:37:04;;;;;;;2.20;1.30;;;;;;;16.61;61.89;100475.53;5071513;28;20365;-66
2022/09/23 05:39:29;;;;;;;2.30;1.30;;;;;;;16.61;61.92;100466.97;5071690;28;20155;-66
2022/09/23 05:41:55;;;;;;;3.20;1.50;;;;;;;16.62;61.84;100471.50;5071486;28;20432;-66
2022/09/23 05:44:20;;;;;;;2.43;1.20;;;;;;;16.61;61.89;100471.88;5072784;28;20198;-66
2022/09/23 05:46:46;;;;;;;3.57;1.80;;;;;;;16.62;62.10;100470.69;5087267;28;20194;-66
2022/09/23 05:49:11;;;;;;;2.50;1.40;;;;;;;16.62;61.92;100468.66;5069066;28;20213;-66
2022/09/23 05:51:37;;;;;;;3.10;1.63;;;;;;;16.62;61.84;100470.69;5070138;28;20676;-66
2022/09/23 05:54:02;;;;;;;2.93;1.30;;;;;;;16.61;61.69;100469.84;5070638;28;20202;-66
2022/09/23 05:56:28;;;;;;;2.53;1.53;;;;;;;16.62;61.71;100482.91;5068667;28;20234;-66
2022/09/23 05:58:55;;;;;;;2.60;1.10;;;;;;;16.61;62.06;100478.38;5052389;28;20178;-66
2022/09/23 06:01:23;;;;;;;2.70;1.60;;;;;;;16.60;62.16;100488.13;5068834;28;20228;-66
2022/09/23 06:03:52;;;;;;;3.07;1.53;;;;;;;16.62;61.83;100482.06;5070158;28;20528;-66
2022/09/23 06:06:19;;;;;;;2.47;1.30;;;;;;;16.61;61.85;100481.22;5070479;28;20421;-66
2022/09/23 06:08:45;;;;;;;2.90;1.40;;;;;;;16.61;61.92;100475.53;5069919;28;20441;-66
2022/09/23 06:11:11;;;;;;;2.70;1.57;;;;;;;16.60;62.16;100476.72;5069496;28;20908;-66
2022/09/23 06:13:37;;;;;;;2.60;1.50;;;;;;;16.61;61.83;100475.53;5072241;28;20167;-66
2022/09/23 06:16:09;;;;;;;2.23;1.27;;;;;;;16.60;61.82;100479.59;5074531;28;20478;-66
2022/09/23 06:18:42;;;;;;;2.43;1.37;;;;;;;16.61;62.03;100478.38;5057586;28;20437;-66
2022/09/23 06:21:11;;;;;;;2.20;1.50;;;;;;;16.60;61.93;100468.19;5057796;28;20413;-66
2022/09/23 06:23:36;;;;;;;2.57;1.40;;;;;;;16.59;61.81;100463.69;5057034;28;20500;-66
2022/09/23 06:26:03;;;;;;;2.73;1.43;;;;;;;16.61;61.92;100478.38;5074443;28;20634;-66
2022/09/23 06:28:31;;;;;;;2.90;1.30;;;;;;;16.60;61.70;100473.88;5073867;28;20163;-66
2022/09/23 06:30:59;;;;;;;2.13;1.30;;;;;;;16.61;61.86;100472.69;5073100;28;20421;-66
2022/09/23 06:33:26;;;;;;;2.20;1.30;;;;;;;16.61;61.68;100471.88;5075106;28;20424;-66
2022/09/23 06:35:58;;;;;;;2.40;1.53;;;;;;;16.60;62.15;100475.91;5074683;28;20390;-66
2022/09/23 06:38:24;;;;;;;2.07;1.33;;;;;;;16.60;62.02;100473.06;5073284;28;20429;-66
2022/09/23 06:40:51;;;;;;;2.47;1.37;;;;;;;16.60;61.76;100476.72;5107664;28;20406;-66
2022/09/23 06:43:16;;;;;;;2.57;1.47;;;;;;;16.61;61.86;100471.88;5073651;28;20409;-66
2022/09/23 06:45:42;;;;;;;5.83;1.60;;;;;;;16.60;61.71;100471.03;5073825;28;20413;-66
2022/09/23 06:48:08;;;;;;;2.90;1.70;;;;;;;16.60;62.05;100470.22;5073945;28;20190;-66
2022/09/23 06:50:33;;;;;;;2.70;1.63;;;;;;;16.60;61.90;100473.88;5074581;28;20203;-66
2022/09/23 06:52:59;;;;;;;2.43;1.27;;;;;;;16.59;61.79;100480.78;5075026;28;20421;-66
2022/09/23 06:55:26;;;;;;;2.40;1.77;;;;;;;16.58;61.75;100470.56;5073488;28;20182;-66
2022/09/23 06:57:51;;;;;;;3.40;1.20;;;;;;;16.59;61.89;100471.38;5106542;28;20214;-66
2022/09/23 07:00:17;;;;;;;3.00;1.80;;;;;;;16.59;62.05;100477.09;5073275;28;20555;-66
2022/09/23 07:02:42;;;;;;;2.13;1.13;;;;;;;16.59;61.79;100479.94;5072905;28;20178;-66
2022/09/23 07:05:08;;;;;;;2.67;1.60;;;;;;;16.58;61.93;100473.44;5074248;28;20178;-66
2022/09/23 07:07:35;;;;;;;2.50;1.40;;;;;;;16.58;61.85;100479.13;5074346;28;20187;-66
2022/09/23 07:10:01;;;;;;;2.00;1.07;;;;;;;16.59;61.87;100477.09;5072836;28;20202;-66
2022/09/23 07:12:26;;;;;;;1.97;1.20;;;;;;;16.59;61.99;100480.78;5072955;28;20435;-66
2022/09/23 07:14:52;;;;;;;2.17;1.20;;;;;;;16.59;62.24;100489.34;5074709;28;20713;-66
2022/09/23 07:17:17;;;;;;;2.00;1.17;;;;;;;16.59;61.98;100485.63;5074590;28;20183;-66
2022/09/23 07:19:42;;;;;;;2.37;1.30;;;;;;;16.58;61.75;100489.69;5074641;28;20182;-66
2022/09/23 07:22:08;;;;;;;2.80;1.77;;;;;;;16.58;62.00;100484.81;5072807;28;20160;-66
2022/09/23 07:24:33;;;;;;;2.23;1.57;;;;;;;16.59;62.03;100491.34;5072949;28;20162;-66
2022/09/23 07:26:59;;;;;;;2.30;1.40;;;;;;;16.59;61.81;100494.19;5072364;28;20171;-66
2022/09/23 07:29:24;;;;;;;3.30;1.43;;;;;;;16.58;61.87;100496.22;5074391;28;20197;-66
2022/09/23 07:31:50;;;;;;;2.97;1.67;;;;;;;16.58;62.04;100492.53;5072943;28;20225;-66
2022/09/23 07:34:15;;;;;;;2.97;1.70;;;;;;;16.58;61.82;100501.09;5074359;28;20182;-66
2022/09/23 07:36:41;;;;;;;2.23;1.47;;;;;;;16.57;62.09;100497.44;5074314;28;20175;-66
2022/09/23 07:39:10;;;;;;;2.03;1.10;;;;;;;16.57;62.02;100505.97;5073640;28;20179;-66
2022/09/23 07:41:35;;;;;;;2.20;1.30;;;;;;;16.57;61.91;100511.69;5056222;28;20214;-66
2022/09/23 07:44:02;;;;;;;3.13;1.33;;;;;;;16.57;62.05;100514.53;5073814;28;20405;-66
2022/09/23 07:46:31;;;;;;;2.70;1.57;;;;;;;16.57;61.97;100511.69;5072162;28;20838;-66
2022/09/23 07:48:57;;;;;;;2.20;1.20;;;;;;;16.58;62.07;100513.34;5073537;28;20485;-66
2022/09/23 07:51:27;;;;;;;2.10;1.30;;;;;;;16.57;62.06;100517.38;5073654;28;20487;-66
2022/09/23 07:53:53;;;;;;;2.43;1.37;;;;;;;16.57;61.85;100508.81;5056232;28;20232;-66
2022/09/23 07:56:19;;;;;;;2.13;1.20;;;;;;;16.58;61.88;100513.34;5072052;28;20511;-66
2022/09/23 07:58:45;;;;;;;2.43;1.50;;;;;;;16.58;61.99;100518.19;5072297;28;20474;-66
2022/09/23 08:01:11;;;;;;;2.60;1.57;;;;;;;16.56;61.88;100515.69;5072836;28;20774;-66
2022/09/23 08:03:36;;;;;;;2.67;1.50;;;;;;;16.57;62.00;100522.25;5071485;28;20417;-66
2022/09/23 08:06:11;;;;;;;2.83;1.20;;;;;;;16.56;62.21;100515.69;5073671;28;20167;-66
2022/09/23 08:08:43;;;;;;;2.60;1.67;;;;;;;16.56;62.05;100521.41;5073573;28;20190;-66
2022/09/23 08:11:10;;;;;;;2.00;1.20;;;;;;;16.57;61.87;100520.22;5104347;28;20405;-66
2022/09/23 08:13:35;;;;;;;2.10;1.40;;;;;;;16.56;62.02;100521.41;5073699;28;20512;-66
2022/09/23 08:16:01;;;;;;;2.10;1.20;;;;;;;16.57;61.85;100519.38;5073570;28;20473;-66
2022/09/23 08:18:26;;;;;;;2.40;1.30;;;;;;;16.56;61.99;100521.41;5055215;28;20182;-66
2022/09/23 08:20:52;;;;;;;2.20;1.30;;;;;;;16.57;62.10;100522.25;5072794;28;20285;-66
2022/09/23 08:23:18;;;;;;;2.10;1.40;;;;;;;16.58;61.90;100526.75;5072574;28;20197;-66
2022/09/23 08:25:47;;;;;;;2.03;1.27;;;;;;;16.57;62.01;100523.09;5071071;28;20202;-66
2022/09/23 08:28:17;;;;;;;1.90;0.97;;;;;;;16.56;61.95;100521.41;5070428;28;20496;-66
2022/09/23 08:30:43;;;;;;;2.70;1.40;;;;;;;16.57;62.05;100516.53;5069877;28;20533;-66
2022/09/23 08:33:11;;;;;;;2.13;1.10;;;;;;;16.56;61.97;100515.69;5072149;28;20413;-67
2022/09/23 08:35:37;;;;;;;2.63;1.37;;;;;;;16.56;62.16;100521.41;5071834;28;20397;-66
2022/09/23 08:38:02;;;;;;;1.90;1.23;;;;;;;16.55;62.15;100516.88;5071778;28;20897;-66
2022/09/23 08:40:28;;;;;;;2.50;1.47;;;;;;;16.55;61.80;100508.34;5087505;28;20674;-66
2022/09/23 08:42:53;;;;;;;2.70;1.20;;;;;;;16.56;61.78;100509.19;5105404;28;20171;-66
2022/09/23 08:45:25;;;;;;;2.20;1.20;;;;;;;16.57;62.12;100511.69;5072825;28;20172;-66
2022/09/23 08:48:00;;;;;;;1.70;1.17;;;;;;;16.56;62.30;100504.28;5088367;28;20618;-66
2022/09/23 08:50:53;;;;;;;2.50;1.30;;;;;;;16.56;62.11;100507.16;5070959;28;20983;-66
2022/09/23 08:53:31;;;;;;;2.60;1.40;;;;;;;16.56;62.06;100504.28;5070735;28;20440;-66
2022/09/23 08:56:02;;;;;;;2.33;1.13;;;;;;;16.57;61.99;100510.84;5071124;28;20533;-66
2022/09/23 08:58:43;;;;;;;2.00;1.30;;;;;;;16.56;61.92;100501.44;5072387;28;20429;-66
2022/09/23 09:01:23;;;;;;;2.40;1.30;;;;;;;16.55;62.15;100508.34;5071274;28;20404;-66
2022/09/23 09:03:59;;;;;;;2.13;1.17;;;;;;;16.55;62.08;100508.34;5071245;28;20409;-66
2022/09/23 09:06:30;;;;;;;2.17;1.30;;;;;;;16.56;62.06;100510.00;5070892;28;20432;-66
2022/09/23 09:09:03;;;;;;;2.27;1.30;;;;;;;16.57;61.80;100508.81;5071087;28;20494;-66
2022/09/23 09:11:39;;;;;;;2.20;1.20;;;;;;;16.56;61.94;100512.84;5104474;28;20413;-66
2022/09/23 09:14:11;;;;;;;2.07;1.30;;;;;;;16.55;61.89;100505.50;5086367;28;20429;-66
2022/09/23 09:16:43;;;;;;;2.17;1.43;;;;;;;16.56;61.99;100498.59;5103052;28;20406;-66
2022/09/23 09:19:19;;;;;;;2.33;1.40;;;;;;;16.56;61.95;100504.28;5070563;28;20486;-66
2022/09/23 09:21:46;;;;;;;4.13;1.57;;;;;;;16.57;61.99;100496.59;5103192;28;20404;-66
2022/09/23 09:24:24;;;;;;;2.83;1.20;;;;;;;16.57;61.58;100497.44;5086724;28;20956;-66
2022/09/23 09:26:51;;;;;;;2.20;1.20;;;;;;;16.57;61.91;100490.88;5085999;28;20533;-66
2022/09/23 09:29:30;;;;;;;1.83;1.00;;;;;;;16.57;61.90;100488.88;5103300;28;20468;-66
2022/09/23 09:31:56;;;;;;;2.33;1.20;;;;;;;16.55;62.03;100488.41;5070968;28;20405;-66
2022/09/23 09:34:35;;;;;;;1.80;1.30;;;;;;;16.57;61.97;100488.03;5104266;28;20424;-66
2022/09/23 09:37:21;;;;;;;2.43;1.40;;;;;;;16.56;61.97;100483.53;5071492;28;20174;-66
2022/09/23 09:39:46;;;;;;;2.50;1.50;;;;;;;16.57;62.16;100473.78;5101051;28;20819;-66
2022/09/23 09:42:16;;;;;;;2.27;1.30;;;;;;;16.57;61.92;100471.78;5072801;28;20500;-66
2022/09/23 09:45:02;;;;;;;2.40;1.33;;;;;;;16.56;61.77;100474.97;5086560;28;20175;-66
2022/09/23 09:47:57;;;;;;;3.07;1.30;;;;;;;16.56;61.90;100472.94;5069895;28;20414;-66
2022/09/23 09:50:40;;;;;;;2.97;1.60;;;;;;;16.56;61.74;100472.94;5073934;28;20461;-66
2022/09/23 09:53:21;;;;;;;2.47;1.50;;;;;;;16.56;61.97;100463.59;5075131;28;20397;-66
2022/09/23 09:55:57;;;;;;;2.37;1.40;;;;;;;16.57;61.97;100463.22;5106134;28;20390;-66
2022/09/23 09:58:23;;;;;;;2.53;1.40;;;;;;;16.57;61.94;100460.38;5090298;28;20433;-66
2022/09/23 10:00:51;;;;;;;2.63;1.23;;;;;;;16.56;62.07;100458.69;5076193;28;20420;-67
2022/09/23 10:03:24;;;;;;;2.20;1.40;;;;;;;16.56;62.12;100455.84;5073362;28;20607;-66
2022/09/23 10:05:51;;;;;;;2.40;1.27;;;;;;;16.56;62.02;100455.03;5074613;28;20832;-66
2022/09/23 10:08:36;;;;;;;1.73;1.10;;;;;;;16.56;61.99;100455.03;5072798;28;20428;-66
2022/09/23 10:11:07;;;;;;;2.00;1.27;;;;;;;16.55;61.83;100451.34;5073641;28;20457;-67
2022/09/23 10:13:32;;;;;;;1.93;1.30;;;;;;;16.56;61.97;100443.63;5074639;28;20423;-66
2022/09/23 10:16:02;;;;;;;2.47;1.50;;;;;;;16.57;62.09;100437.56;5106958;28;20413;-66
2022/09/23 10:18:31;;;;;;;2.00;1.30;;;;;;;16.56;62.03;100433.03;5090244;28;20961;-66
2022/09/23 10:21:16;;;;;;;2.13;1.40;;;;;;;16.56;62.05;100433.03;5075600;28;20502;-66
2022/09/23 10:23:52;;;;;;;2.00;1.30;;;;;;;16.57;61.71;100437.56;5072051;28;20429;-66
2022/09/23 10:26:30;;;;;;;3.70;1.47;;;;;;;16.56;61.96;100433.03;5075691;28;20423;-67
2022/09/23 10:29:03;;;;;;;2.77;1.70;;;;;;;16.56;61.99;100427.34;5074793;28;20417;-67
2022/09/23 10:31:33;;;;;;;2.33;1.20;;;;;;;16.56;61.81;100423.69;5076087;28;20870;-66
2022/09/23 10:34:02;;;;;;;3.00;1.63;;;;;;;16.58;61.96;100413.56;5075726;28;20432;-67
2022/09/23 10:36:30;;;;;;;2.37;1.43;;;;;;;16.56;61.80;100415.94;5059422;28;20992;-66
2022/09/23 10:48:22;;;;;;;2.43;1.40;;;;;;;16.56;61.96;100415.94;5087092;28;20964;-67
2022/09/23 10:50:48;;;;;;;2.60;1.50;;;;;;;16.57;61.62;100414.78;5106771;28;20894;-66
2022/09/23 10:53:32;;;;;;;2.17;1.37;;;;;;;16.59;61.79;100408.69;5106552;28;20505;-66
2022/09/23 10:56:19;;;;;;;2.83;1.40;;;;;;;16.58;61.87;100402.19;5054943;28;20466;-66
2022/09/23 10:58:53;;;;;;;2.10;1.30;;;;;;;16.58;61.97;100409.88;5087262;28;20437;-66
2022/09/23 11:01:40;;;;;;;2.40;1.43;;;;;;;16.60;61.98;100407.53;5054486;28;20409;-66
2022/09/23 11:04:08;;;;;;;1.60;1.00;;;;;;;16.59;61.90;100411.53;5054166;28;20394;-66
2022/09/23 11:06:55;;;;;;;2.30;1.30;;;;;;;16.58;61.79;100412.75;5054193;28;20498;-66
2022/09/23 11:09:30;;;;;;;2.10;1.23;;;;;;;16.57;62.02;100403.38;5080648;28;20453;-67
2022/09/23 11:12:01;;;;;;;2.20;1.30;;;;;;;16.58;61.67;100393.63;5085248;28;20732;-66
2022/09/23 11:14:37;;;;;;;2.50;1.30;;;;;;;16.58;61.75;100392.78;5052818;28;20399;-66
2022/09/23 11:17:41;;;;;;;2.03;1.13;;;;;;;16.58;61.96;100398.50;5052798;28;20410;-66
2022/09/23 11:20:34;;;;;;;1.83;1.20;;;;;;;16.58;61.92;100393.63;5081377;28;20819;-67
2022/09/23 11:23:14;;;;;;;1.90;1.10;;;;;;;16.58;61.69;100392.78;5053757;28;20413;-66
2022/09/23 11:25:39;;;;;;;2.10;1.40;;;;;;;16.58;62.05;100393.63;5054084;28;20412;-66
2022/09/23 11:28:32;;;;;;;1.70;1.10;;;;;;;16.58;61.71;100387.09;5054303;28;20437;-66
2022/09/23 11:31:27;;;;;;;2.50;1.40;;;;;;;16.58;61.81;100376.53;5085971;28;20203;-66
2022/09/23 11:34:08;;;;;;;2.23;1.33;;;;;;;16.58;61.74;100375.69;5068780;28;21044;-66
2022/09/23 11:36:40;;;;;;;2.77;1.20;;;;;;;16.58;61.71;100373.69;5083339;28;20428;-66
2022/09/23 11:39:14;;;;;;;2.10;1.50;;;;;;;16.58;61.77;100367.97;5088384;28;20425;-66
2022/09/23 11:41:39;;;;;;;2.40;1.40;;;;;;;16.57;61.95;100362.63;5105046;28;20421;-66
2022/09/23 11:44:20;;;;;;;2.33;1.20;;;;;;;16.58;61.68;100355.75;5053718;28;21436;-66
2022/09/23 11:46:57;;;;;;;2.10;1.30;;;;;;;16.57;61.70;100354.94;5070253;28;20202;-66
2022/09/23 11:49:29;;;;;;;2.13;1.27;;;;;;;16.58;62.10;100361.44;5053873;28;20457;-66
2022/09/23 11:52:09;;;;;;;2.80;1.40;;;;;;;16.57;62.35;100346.38;5070895;28;20409;-67
2022/09/23 11:54:37;;;;;;;2.90;1.50;;;;;;;16.58;61.64;100350.88;5072216;28;20409;-67